Codora, California
Current Conditions -  °F | °C
As of 1:53 AM on Sunday 25 Jan 2015 (Local Time) from KOVE Reporting Station
Moderate Fog Moderate Fog  
Wind Chill: 38°   Ceiling: 100
Heat Index: 43°   Visibility: 0.25mi
Dew Point: 41°   Wind: 8mph
Humidity: 93%   Direction: 140°SE
Pressure: 30.22"   Gusts: NA
Location:  39.438°N, 122.067°W
Report Text: KOVE 250953Z AUTO 14007KT 1/4SM FG VV001 06/05 A3022 RMK AO2 SLP234 T00610050
Loading
Personal Weather Stations






























Interactive Weather Map New forecast layout! Learn more

10-Day Weather Forecast

Advertisements
Track Severe Weather on mobile